MOL Celebration — C6WW7 — position and weather

sailwx.info

Track history (hours):
 
Tides and Currents Weather Stations Pressure Air Temp Water Temp Dewpoint Dewpoint Depression Visibility Wind Speed Wind Dir Waves Ship Positions

MOL Celebration

Last reported at 2016-May-02 14:24 UTC. Time now 2016-May-04 17:23 UTC.
Position N 25°01' E 120°02'.

Length 316 m; draft 12.5 m.

Type: Ship (hazmat cat D). MMSI: 309901000.

Date/timePositionNaut miles runAvg speedWind from/ knotsBaromVisibWave heightAir tempDewpointWater temp
2016-May-02 14:24N 25°01' E 120°02'4520.5
2016-May-02 12:10N 24°31' E 119°24'3119.4
2016-May-02 10:34N 24°12' E 118°57'2119.6
2016-May-02 09:30N 23°59' E 118°39'25217.8
2016-May-01 19:19N 22°07' E 114°34'1113.1
2016-May-01 18:31N 22°07' E 114°22'11 7.6
2016-May-01 17:06N 22°11' E 114°11'7 9.0
2016-May-01 16:19N 22°16' E 114°07'4 4.8
2016-May-01 15:32N 22°20' E 114°08'0 0.2
2016-May-01 14:29N 22°20' E 114°08'0 0.0
2016-May-01 13:29N 22°20' E 114°08'0 0.0
2016-May-01 12:29N 22°20' E 114°08'0 0.0
2016-May-01 11:32N 22°20' E 114°08'0 0.0
2016-May-01 10:29N 22°20' E 114°08'0 0.0
2016-May-01 09:29N 22°20' E 114°08'0 0.0
2016-May-01 08:29N 22°20' E 114°08'0 0.0
2016-May-01 07:32N 22°20' E 114°08'0 0.0
2016-May-01 06:29N 22°20' E 114°08'0 0.0
2016-May-01 05:29N 22°20' E 114°08'0 0.0
2016-May-01 04:29N 22°20' E 114°08'0 0.0
2016-May-01 03:29N 22°20' E 114°08'0 0.0
2016-May-01 02:32N 22°20' E 114°08'0 0.0
2016-May-01 01:32N 22°20' E 114°08'0 0.0
2016-May-01 00:32N 22°20' E 114°08'0 0.0
2016-Apr-30 23:29N 22°20' E 114°08'0 0.0
2016-Apr-30 22:32N 22°20' E 114°08'0 0.0
2016-Apr-30 21:29N 22°20' E 114°08'0 0.0
2016-Apr-30 20:29N 22°20' E 114°08'0 0.2
2016-Apr-30 19:33N 22°20' E 114°08'14 6.6
2016-Apr-30 17:28N 22°08' E 114°16'8 8.5
2016-Apr-30 16:33N 22°06' E 114°24'  
Track history (hours):
 
Tides and Currents Weather Stations Pressure Air Temp Water Temp Dewpoint Dewpoint Depression Visibility Wind Speed Wind Dir Waves Ship Positions

MOL Celebration

Last reported at 2016-May-02 14:24 UTC. Time now 2016-May-04 17:23 UTC.
Position N 25°01' E 120°02'.

Length 316 m; draft 12.5 m.

Type: Ship (hazmat cat D). MMSI: 309901000.

Date/timePositionNaut miles runAvg speedWind from/ knotsBaromVisibWave heightAir tempDewpointWater temp
2016-May-02 14:24N 25°01' E 120°02'4520.5
2016-May-02 12:10N 24°31' E 119°24'3119.4
2016-May-02 10:34N 24°12' E 118°57'2119.6
2016-May-02 09:30N 23°59' E 118°39'25217.8
2016-May-01 19:19N 22°07' E 114°34'1113.1
2016-May-01 18:31N 22°07' E 114°22'11 7.6
2016-May-01 17:06N 22°11' E 114°11'7 9.0
2016-May-01 16:19N 22°16' E 114°07'4 4.8
2016-May-01 15:32N 22°20' E 114°08'0 0.2
2016-May-01 14:29N 22°20' E 114°08'0 0.0
2016-May-01 13:29N 22°20' E 114°08'0 0.0
2016-May-01 12:29N 22°20' E 114°08'0 0.0
2016-May-01 11:32N 22°20' E 114°08'0 0.0
2016-May-01 10:29N 22°20' E 114°08'0 0.0
2016-May-01 09:29N 22°20' E 114°08'0 0.0
2016-May-01 08:29N 22°20' E 114°08'0 0.0
2016-May-01 07:32N 22°20' E 114°08'0 0.0
2016-May-01 06:29N 22°20' E 114°08'0 0.0
2016-May-01 05:29N 22°20' E 114°08'0 0.0
2016-May-01 04:29N 22°20' E 114°08'0 0.0
2016-May-01 03:29N 22°20' E 114°08'0 0.0
2016-May-01 02:32N 22°20' E 114°08'0 0.0
2016-May-01 01:32N 22°20' E 114°08'0 0.0
2016-May-01 00:32N 22°20' E 114°08'0 0.0
2016-Apr-30 23:29N 22°20' E 114°08'0 0.0
2016-Apr-30 22:32N 22°20' E 114°08'0 0.0
2016-Apr-30 21:29N 22°20' E 114°08'0 0.0
2016-Apr-30 20:29N 22°20' E 114°08'0 0.2
2016-Apr-30 19:33N 22°20' E 114°08'14 6.6
2016-Apr-30 17:28N 22°08' E 114°16'8 8.5
2016-Apr-30 16:33N 22°06' E 114°24'  

Dump ship's entire track history